createdAt,value
2023-05-12T00:00:58.560Z,14.37
2023-05-12T00:01:58.530Z,14.41
2023-05-12T00:02:58.533Z,14.33
2023-05-12T00:03:58.580Z,14.37
2023-05-12T00:04:58.542Z,14.37
2023-05-12T00:05:58.408Z,14.35
2023-05-12T00:06:58.359Z,14.43
2023-05-12T00:07:58.324Z,14.43
2023-05-12T00:08:58.289Z,14.44
2023-05-12T00:09:58.273Z,14.41
2023-05-12T00:10:58.237Z,14.35
2023-05-12T00:11:58.180Z,14.35
2023-05-12T00:12:58.154Z,14.41
2023-05-12T00:13:58.137Z,14.40
2023-05-12T00:14:58.082Z,14.41
2023-05-12T00:15:58.087Z,14.37
2023-05-12T00:16:58.113Z,14.47
2023-05-12T00:17:58.006Z,14.45
2023-05-12T00:18:57.973Z,14.36
2023-05-12T00:19:57.919Z,14.35
2023-05-12T00:20:57.878Z,14.37
2023-05-12T00:21:57.852Z,14.35
2023-05-12T00:22:57.817Z,14.30
2023-05-12T00:23:57.778Z,14.26
2023-05-12T00:24:57.745Z,14.23
2023-05-12T00:25:57.704Z,14.28
2023-05-12T00:26:57.680Z,14.26
2023-05-12T00:27:57.640Z,14.28
2023-05-12T00:28:57.630Z,14.22
2023-05-12T00:29:57.586Z,14.17
2023-05-12T00:30:57.538Z,14.29
2023-05-12T00:31:57.585Z,14.26
2023-05-12T00:32:57.503Z,14.29
2023-05-12T00:33:57.437Z,14.20
2023-05-12T00:34:57.407Z,14.25
2023-05-12T00:35:57.368Z,14.23
2023-05-12T00:36:57.352Z,14.30
2023-05-12T00:37:57.303Z,14.28
2023-05-12T00:38:57.270Z,14.30
2023-05-12T00:39:57.245Z,14.35
2023-05-12T00:40:57.205Z,14.32
2023-05-12T00:41:57.169Z,14.29
2023-05-12T00:42:57.130Z,14.30
2023-05-12T00:43:57.110Z,14.45
2023-05-12T00:44:57.067Z,14.33
2023-05-12T00:45:57.108Z,14.37
2023-05-12T00:46:57.015Z,14.40
2023-05-12T00:47:57.015Z,14.32
2023-05-12T00:48:56.930Z,14.41
2023-05-12T00:49:56.913Z,14.30
2023-05-12T00:50:56.865Z,14.28
2023-05-12T00:51:56.833Z,14.33
2023-05-12T00:52:56.802Z,14.35
2023-05-12T00:53:56.766Z,14.25
2023-05-12T00:54:56.744Z,14.25
2023-05-12T00:55:56.704Z,14.22
2023-05-12T00:56:56.666Z,14.20
2023-05-12T00:57:56.633Z,14.22
2023-05-12T00:58:56.597Z,14.20
2023-05-12T00:59:56.559Z,14.23
2023-05-12T01:00:56.571Z,14.20
2023-05-12T01:01:56.489Z,14.22
2023-05-12T01:02:56.521Z,14.28
2023-05-12T01:03:56.419Z,14.29
2023-05-12T01:04:56.387Z,14.25
2023-05-12T01:05:56.357Z,14.25
2023-05-12T01:06:56.319Z,14.14
2023-05-12T01:07:56.285Z,14.20
2023-05-12T01:08:56.250Z,14.20
2023-05-12T01:09:56.219Z,14.23
2023-05-12T01:10:56.189Z,14.22
2023-05-12T01:11:56.152Z,14.23
2023-05-12T01:12:56.112Z,14.23
2023-05-12T01:13:56.089Z,14.22
2023-05-12T01:14:56.087Z,14.30
2023-05-12T01:15:56.029Z,14.14
2023-05-12T01:16:56.055Z,14.20
2023-05-12T01:17:55.939Z,14.22
2023-05-12T01:18:55.951Z,14.22
2023-05-12T01:19:55.878Z,14.28
2023-05-12T01:20:55.847Z,14.32
2023-05-12T01:21:55.803Z,14.32
2023-05-12T01:22:55.782Z,14.37
2023-05-12T01:23:55.739Z,14.28
2023-05-12T01:24:55.720Z,14.32
2023-05-12T01:25:55.682Z,14.26
2023-05-12T01:26:55.651Z,14.28
2023-05-12T01:27:55.613Z,14.30
2023-05-12T01:28:55.569Z,14.29
2023-05-12T01:29:55.544Z,14.33
2023-05-12T01:30:55.635Z,14.37
2023-05-12T01:31:55.469Z,14.32
2023-05-12T01:32:55.527Z,14.35
2023-05-12T01:33:55.412Z,14.35
2023-05-12T01:34:55.362Z,14.23
2023-05-12T01:35:55.342Z,14.26
2023-05-12T01:36:55.298Z,14.30
2023-05-12T01:37:55.261Z,14.32
2023-05-12T01:38:55.233Z,14.28
2023-05-12T01:39:55.193Z,14.35
2023-05-12T01:40:55.165Z,14.25
2023-05-12T01:41:55.135Z,14.30
2023-05-12T01:42:55.095Z,14.28
2023-05-12T01:43:55.063Z,14.20
2023-05-12T01:44:55.027Z,14.28
2023-05-12T01:45:54.996Z,14.32
2023-05-12T01:46:55.002Z,14.30
2023-05-12T01:47:54.957Z,14.28
2023-05-12T01:48:54.887Z,14.28
2023-05-12T01:49:54.880Z,14.23
2023-05-12T01:50:54.823Z,14.18
2023-05-12T01:51:54.782Z,14.25
2023-05-12T01:52:54.747Z,14.15
2023-05-12T01:53:54.718Z,14.15
2023-05-12T01:54:54.681Z,14.12
2023-05-12T01:55:54.644Z,14.23
2023-05-12T01:56:54.613Z,14.20
2023-05-12T01:57:54.606Z,14.20
2023-05-12T01:58:54.549Z,14.25
2023-05-12T01:59:54.517Z,14.20
2023-05-12T02:00:54.467Z,14.23
2023-05-12T02:01:54.483Z,14.10
2023-05-12T02:02:54.530Z,14.23
2023-05-12T02:03:54.508Z,14.18
2023-05-12T02:04:54.340Z,13.90
2023-05-12T02:05:54.305Z,14.14
2023-05-12T02:06:54.282Z,14.17
2023-05-12T02:07:54.233Z,14.11
2023-05-12T02:08:54.200Z,13.92
2023-05-12T02:09:54.164Z,13.95
2023-05-12T02:10:54.130Z,13.97
2023-05-12T02:11:54.103Z,13.90
2023-05-12T02:12:54.067Z,13.92
2023-05-12T02:13:54.028Z,13.78
2023-05-12T02:14:54.004Z,13.81
2023-05-12T02:15:53.991Z,13.90
2023-05-12T02:16:53.925Z,13.95
2023-05-12T02:17:53.995Z,14.00
2023-05-12T02:18:53.909Z,14.07
2023-05-12T02:19:53.832Z,13.95
2023-05-12T02:20:53.792Z,13.87
2023-05-12T02:21:53.757Z,14.07
2023-05-12T02:22:53.733Z,14.03
2023-05-12T02:23:53.694Z,13.89
2023-05-12T02:24:53.655Z,14.05
2023-05-12T02:25:53.618Z,14.15
2023-05-12T02:26:53.596Z,14.12
2023-05-12T02:27:53.551Z,14.05
2023-05-12T02:28:53.540Z,14.14
2023-05-12T02:29:53.495Z,14.15
2023-05-12T02:30:53.461Z,14.20
2023-05-12T02:31:53.436Z,14.25
2023-05-12T02:32:53.412Z,14.20
2023-05-12T02:33:53.349Z,14.22
2023-05-12T02:34:53.324Z,14.26
2023-05-12T02:35:53.282Z,14.22
2023-05-12T02:36:53.245Z,14.15
2023-05-12T02:37:53.211Z,14.18
2023-05-12T02:38:53.176Z,14.23
2023-05-12T02:39:53.146Z,14.32
2023-05-12T02:40:53.107Z,14.28
2023-05-12T02:41:53.079Z,14.33
2023-05-12T02:42:53.040Z,14.33
2023-05-12T02:43:53.005Z,14.43
2023-05-12T02:44:52.978Z,14.37
2023-05-12T02:45:52.973Z,14.45
2023-05-12T02:46:52.905Z,14.48
2023-05-12T02:47:52.917Z,14.54
2023-05-12T02:48:52.855Z,14.50
2023-05-12T02:49:52.804Z,14.53
2023-05-12T02:50:52.771Z,14.53
2023-05-12T02:51:52.736Z,14.59
2023-05-12T02:52:52.706Z,14.55
2023-05-12T02:53:52.673Z,14.54
2023-05-12T02:54:52.636Z,14.62
2023-05-12T02:55:52.601Z,14.65
2023-05-12T02:56:52.566Z,14.63
2023-05-12T02:57:52.563Z,14.59
2023-05-12T02:58:52.507Z,14.66
2023-05-12T02:59:52.469Z,14.69
2023-05-12T03:01:03.051Z,14.66
2023-05-12T03:01:52.466Z,14.70
2023-05-12T03:02:52.429Z,14.68
2023-05-12T03:03:52.428Z,14.68
2023-05-12T03:04:52.298Z,14.73
2023-05-12T03:05:52.280Z,14.73
2023-05-12T03:06:52.236Z,14.73
2023-05-12T03:07:52.204Z,14.66
2023-05-12T03:08:52.160Z,14.68
2023-05-12T03:09:52.138Z,14.77
2023-05-12T03:10:52.099Z,14.72
2023-05-12T03:11:52.069Z,14.77
2023-05-12T03:12:52.030Z,14.78
2023-05-12T03:13:51.998Z,14.88
2023-05-12T03:14:51.961Z,14.84
2023-05-12T03:15:51.936Z,14.82
2023-05-12T03:16:51.937Z,14.86
2023-05-12T03:17:51.902Z,14.84
2023-05-12T03:18:51.936Z,14.84
2023-05-12T03:19:51.795Z,14.72
2023-05-12T03:20:51.769Z,14.78
2023-05-12T03:21:51.735Z,14.70
2023-05-12T03:22:51.718Z,14.73
2023-05-12T03:23:51.661Z,14.72
2023-05-12T03:24:51.636Z,14.73
2023-05-12T03:25:51.590Z,14.73
2023-05-12T03:26:51.560Z,14.73
2023-05-12T03:27:51.527Z,14.73
2023-05-12T03:28:51.502Z,14.72
2023-05-12T03:29:51.455Z,14.73
2023-05-12T03:30:51.423Z,14.79
2023-05-12T03:31:51.547Z,14.78
2023-05-12T03:32:51.393Z,14.82
2023-05-12T03:33:51.338Z,14.65
2023-05-12T03:34:51.294Z,14.60
2023-05-12T03:35:51.258Z,14.63
2023-05-12T03:36:51.254Z,14.62
2023-05-12T03:37:51.191Z,14.65
2023-05-12T03:38:51.155Z,14.70
2023-05-12T03:39:51.120Z,14.70
2023-05-12T03:40:51.085Z,14.77
2023-05-12T03:41:51.053Z,14.70
2023-05-12T03:42:51.017Z,14.78
2023-05-12T03:43:50.988Z,14.60
2023-05-12T03:44:50.947Z,14.70
2023-05-12T03:45:50.921Z,14.72
2023-05-12T03:46:50.927Z,14.60
2023-05-12T03:47:50.950Z,14.68
2023-05-12T03:48:50.815Z,14.68
2023-05-12T03:49:50.807Z,14.72
2023-05-12T03:50:50.754Z,14.60
2023-05-12T03:51:50.718Z,14.68
2023-05-12T03:52:50.683Z,14.65
2023-05-12T03:53:50.645Z,14.77
2023-05-12T03:54:50.637Z,14.72
2023-05-12T03:55:50.595Z,14.79
2023-05-12T03:56:50.545Z,14.81
2023-05-12T03:57:50.517Z,14.70
2023-05-12T03:58:50.481Z,14.73
2023-05-12T03:59:50.447Z,14.72
2023-05-12T04:00:50.421Z,14.69
2023-05-12T04:01:50.409Z,14.79
2023-05-12T04:02:50.501Z,14.84
2023-05-12T04:03:50.518Z,14.96
2023-05-12T04:04:50.274Z,14.85
2023-05-12T04:05:50.254Z,14.88
2023-05-12T04:06:50.211Z,14.85
2023-05-12T04:07:50.184Z,14.92
2023-05-12T04:08:50.156Z,14.89
2023-05-12T04:09:50.121Z,14.88
2023-05-12T04:10:50.075Z,14.84
2023-05-12T04:11:50.044Z,14.84
2023-05-12T04:12:50.015Z,14.89
2023-05-12T04:13:49.983Z,14.82
2023-05-12T04:14:49.943Z,14.77
2023-05-12T04:15:49.903Z,14.85
2023-05-12T04:16:50.020Z,14.81
2023-05-12T04:17:49.907Z,14.78
2023-05-12T04:18:49.943Z,14.85
2023-05-12T04:19:49.772Z,14.85
2023-05-12T04:20:49.742Z,14.86
2023-05-12T04:21:49.714Z,14.86
2023-05-12T04:22:49.666Z,14.99
2023-05-12T04:23:49.638Z,14.99
2023-05-12T04:24:49.603Z,14.99
2023-05-12T04:25:49.595Z,14.94
2023-05-12T04:26:49.538Z,14.82
2023-05-12T04:27:49.506Z,14.81
2023-05-12T04:28:49.472Z,14.81
2023-05-12T04:29:49.434Z,14.73
2023-05-12T04:30:49.396Z,14.72
2023-05-12T04:31:49.404Z,14.73
2023-05-12T04:32:49.382Z,14.70
2023-05-12T04:33:49.298Z,14.70
2023-05-12T04:34:49.264Z,14.79
2023-05-12T04:35:49.234Z,14.70
2023-05-12T04:36:49.200Z,14.79
2023-05-12T04:37:49.200Z,14.69
2023-05-12T04:38:49.128Z,14.72
2023-05-12T04:39:49.113Z,14.66
2023-05-12T04:40:49.074Z,14.68
2023-05-12T04:41:49.048Z,14.72
2023-05-12T04:42:48.996Z,14.85
2023-05-12T04:44:48.942Z,14.89
2023-05-12T04:45:48.929Z,14.82
2023-05-12T04:46:48.860Z,14.84
2023-05-12T04:47:48.867Z,14.86
2023-05-12T04:48:48.797Z,14.82
2023-05-12T04:49:48.763Z,14.82
2023-05-12T04:50:48.737Z,14.88
2023-05-12T04:51:48.696Z,14.84
2023-05-12T04:52:48.661Z,14.88
2023-05-12T04:53:48.627Z,14.96
2023-05-12T04:54:48.598Z,15.02
2023-05-12T04:55:48.559Z,14.97
2023-05-12T04:56:48.521Z,14.97
2023-05-12T04:57:48.490Z,14.97
2023-05-12T04:58:48.459Z,15.04
2023-05-12T04:59:48.421Z,15.00
2023-05-12T05:00:48.388Z,15.06
2023-05-12T05:01:48.400Z,15.07
2023-05-12T05:02:48.406Z,15.00
2023-05-12T05:03:48.364Z,15.11
2023-05-12T05:04:48.264Z,15.11
2023-05-12T05:05:48.223Z,15.09
2023-05-12T05:06:48.198Z,15.07
2023-05-12T05:07:48.157Z,15.14
2023-05-12T05:08:48.122Z,15.18
2023-05-12T05:09:48.090Z,15.10
2023-05-12T05:10:48.068Z,15.14
2023-05-12T05:11:48.024Z,15.14
2023-05-12T05:12:47.985Z,15.10
2023-05-12T05:13:47.960Z,15.15
2023-05-12T05:14:47.927Z,15.11
2023-05-12T05:15:47.934Z,15.21
2023-05-12T05:16:47.857Z,15.10
2023-05-12T05:17:47.855Z,15.21
2023-05-12T05:18:47.830Z,15.11
2023-05-12T05:19:57.139Z,15.15
2023-05-12T05:20:56.783Z,15.22
2023-05-12T05:21:47.682Z,15.11
2023-05-12T05:22:47.652Z,15.17
2023-05-12T05:23:47.624Z,15.19
2023-05-12T05:24:47.590Z,15.07
2023-05-12T05:25:47.554Z,15.18
2023-05-12T05:26:47.516Z,15.21
2023-05-12T05:27:47.506Z,15.24
2023-05-12T05:28:47.451Z,15.22
2023-05-12T05:29:47.419Z,15.24
2023-05-12T05:30:47.388Z,15.22
2023-05-12T05:31:47.467Z,15.28
2023-05-12T05:32:47.372Z,15.27
2023-05-12T05:33:47.294Z,15.27
2023-05-12T05:34:47.254Z,15.24
2023-05-12T05:35:47.216Z,15.24
2023-05-12T05:36:47.189Z,15.21
2023-05-12T05:37:47.154Z,15.19
2023-05-12T05:38:47.111Z,15.21
2023-05-12T05:39:47.082Z,15.24
2023-05-12T05:40:53.798Z,15.27
2023-05-12T05:41:47.054Z,15.35
2023-05-12T05:42:46.982Z,15.24
2023-05-12T05:43:46.947Z,15.25
2023-05-12T05:44:46.940Z,15.25
2023-05-12T05:45:46.886Z,15.28
2023-05-12T05:46:46.882Z,15.29
2023-05-12T05:47:46.841Z,15.33
2023-05-12T05:48:46.781Z,15.40
2023-05-12T05:49:46.755Z,15.29
2023-05-12T05:50:46.743Z,15.33
2023-05-12T05:51:46.680Z,15.31
2023-05-12T05:52:46.648Z,15.28
2023-05-12T05:53:46.616Z,15.36
2023-05-12T05:54:46.587Z,15.43
2023-05-12T05:55:46.556Z,15.42
2023-05-12T05:56:46.518Z,15.42
2023-05-12T05:57:46.488Z,15.44
2023-05-12T05:58:46.451Z,15.31
2023-05-12T05:59:46.419Z,15.27
2023-05-12T06:00:46.383Z,15.27
2023-05-12T06:01:46.425Z,15.37
2023-05-12T06:02:46.825Z,15.43
2023-05-12T06:03:46.356Z,15.42
2023-05-12T06:04:46.250Z,15.39
2023-05-12T06:05:46.218Z,15.37
2023-05-12T06:06:46.177Z,15.44
2023-05-12T06:07:46.163Z,15.35
2023-05-12T06:08:46.181Z,15.35
2023-05-12T06:09:46.083Z,15.28
2023-05-12T06:10:46.044Z,15.31
2023-05-12T06:11:46.017Z,15.27
2023-05-12T06:12:45.979Z,15.35
2023-05-12T06:13:45.946Z,15.27
2023-05-12T06:14:45.912Z,15.35
2023-05-12T06:15:45.886Z,15.28
2023-05-12T06:16:45.900Z,15.36
2023-05-12T06:17:45.829Z,15.35
2023-05-12T06:18:45.812Z,15.36
2023-05-12T06:19:45.751Z,15.28
2023-05-12T06:20:45.753Z,15.31
2023-05-12T06:21:45.686Z,15.29
2023-05-12T06:22:45.649Z,15.28
2023-05-12T06:23:45.613Z,15.36
2023-05-12T06:24:45.579Z,15.25
2023-05-12T06:25:45.546Z,15.37
2023-05-12T06:26:45.505Z,15.40
2023-05-12T06:27:45.477Z,15.37
2023-05-12T06:28:45.444Z,15.35
2023-05-12T06:29:45.421Z,15.36
2023-05-12T06:30:45.377Z,15.39
2023-05-12T06:31:45.379Z,15.35
2023-05-12T06:32:45.367Z,15.39
2023-05-12T06:33:45.285Z,15.40
2023-05-12T06:34:45.243Z,15.35
2023-05-12T06:35:45.211Z,15.35
2023-05-12T06:36:45.189Z,15.36
2023-05-12T06:37:45.145Z,15.46
2023-05-12T06:38:45.115Z,15.42
2023-05-12T06:39:45.095Z,15.40
2023-05-12T06:40:45.057Z,15.40
2023-05-12T06:41:45.011Z,15.42
2023-05-12T06:42:44.986Z,15.39
2023-05-12T06:43:44.949Z,15.44
2023-05-12T06:44:44.926Z,15.43
2023-05-12T06:45:44.917Z,15.44
2023-05-12T06:46:44.906Z,15.47
2023-05-12T06:47:44.820Z,15.55
2023-05-12T06:48:44.780Z,15.59
2023-05-12T06:49:44.752Z,15.44
2023-05-12T06:50:44.713Z,15.52
2023-05-12T06:51:44.680Z,15.58
2023-05-12T06:52:44.662Z,15.59
2023-05-12T06:53:44.619Z,15.52
2023-05-12T06:54:44.587Z,15.58
2023-05-12T06:55:44.548Z,15.46
2023-05-12T06:56:44.526Z,15.46
2023-05-12T06:57:44.482Z,15.42
2023-05-12T06:58:44.454Z,15.42
2023-05-12T06:59:44.437Z,15.42
2023-05-12T07:00:44.385Z,15.52
2023-05-12T07:01:44.477Z,15.58
2023-05-12T07:02:44.350Z,15.52
2023-05-12T07:03:44.293Z,15.59
2023-05-12T07:04:44.247Z,15.64
2023-05-12T07:05:44.258Z,15.62
2023-05-12T07:06:44.179Z,15.72
2023-05-12T07:07:44.147Z,15.59
2023-05-12T07:08:44.126Z,15.62
2023-05-12T07:09:44.082Z,15.57
2023-05-12T07:10:44.063Z,15.57
2023-05-12T07:11:44.011Z,15.55
2023-05-12T07:12:43.985Z,15.62
2023-05-12T07:13:43.954Z,15.52
2023-05-12T07:14:43.910Z,15.67
2023-05-12T07:15:43.917Z,15.70
2023-05-12T07:16:43.849Z,15.64
2023-05-12T07:17:43.953Z,15.64
2023-05-12T07:18:43.792Z,15.76
2023-05-12T07:19:43.751Z,15.76
2023-05-12T07:20:43.720Z,15.72
2023-05-12T07:21:43.675Z,15.76
2023-05-12T07:22:43.652Z,15.73
2023-05-12T07:23:43.614Z,15.65
2023-05-12T07:24:43.589Z,15.62
2023-05-12T07:25:43.585Z,15.67
2023-05-12T07:26:43.514Z,15.68
2023-05-12T07:27:43.480Z,15.67
2023-05-12T07:28:43.446Z,15.62
2023-05-12T07:29:43.419Z,15.64
2023-05-12T07:30:43.380Z,15.75
2023-05-12T07:31:43.378Z,15.82
2023-05-12T07:32:43.396Z,15.79
2023-05-12T07:33:43.289Z,15.77
2023-05-12T07:34:43.252Z,15.83
2023-05-12T07:35:43.234Z,15.92
2023-05-12T07:36:43.190Z,15.83
2023-05-12T07:37:43.145Z,15.82
2023-05-12T07:38:43.124Z,15.73
2023-05-12T07:39:43.084Z,15.77
2023-05-12T07:40:43.051Z,15.82
2023-05-12T07:41:43.016Z,15.80
2023-05-12T07:42:42.988Z,15.94
2023-05-12T07:43:42.971Z,15.98
2023-05-12T07:44:42.920Z,15.97
2023-05-12T07:45:42.887Z,15.97
2023-05-12T07:46:42.924Z,15.97
2023-05-12T07:47:42.861Z,16.08
2023-05-12T07:48:42.789Z,16.13
2023-05-12T07:49:42.869Z,16.09
2023-05-12T07:50:42.724Z,16.13
2023-05-12T07:51:42.687Z,16.16
2023-05-12T07:52:42.657Z,16.20
2023-05-12T07:53:42.617Z,16.13
2023-05-12T07:54:42.595Z,16.02
2023-05-12T07:55:42.562Z,16.08
2023-05-12T07:56:42.532Z,16.13
2023-05-12T07:57:42.489Z,16.17
2023-05-12T07:58:42.472Z,16.09
2023-05-12T07:59:42.426Z,16.05
2023-05-12T08:00:42.391Z,16.24
2023-05-12T08:01:42.442Z,16.36
2023-05-12T08:02:42.503Z,16.33
2023-05-12T08:03:42.410Z,16.31
2023-05-12T08:04:44.445Z,16.43
2023-05-12T08:05:42.234Z,16.42
2023-05-12T08:06:42.192Z,16.31
2023-05-12T08:07:42.181Z,16.42
2023-05-12T08:08:42.129Z,16.43
2023-05-12T08:09:42.092Z,16.39
2023-05-12T08:10:42.108Z,16.46
2023-05-12T08:11:43.910Z,16.49
2023-05-12T08:12:42.019Z,16.56
2023-05-12T08:13:41.970Z,16.57
2023-05-12T08:14:41.936Z,16.60
2023-05-12T08:15:41.907Z,16.60
2023-05-12T08:16:41.885Z,16.51
2023-05-12T08:17:41.992Z,16.47
2023-05-12T08:18:41.824Z,16.56
2023-05-12T08:19:41.982Z,16.68
2023-05-12T08:20:41.732Z,16.68
2023-05-12T08:21:41.856Z,16.76
2023-05-12T08:22:41.696Z,16.81
2023-05-12T08:23:41.646Z,16.76
2023-05-12T08:24:41.613Z,16.81
2023-05-12T08:25:41.576Z,16.86
2023-05-12T08:26:41.548Z,16.79
2023-05-12T08:27:41.519Z,16.78
2023-05-12T08:28:41.477Z,16.91
2023-05-12T08:29:41.447Z,16.96
2023-05-12T08:30:41.443Z,16.94
2023-05-12T08:31:41.412Z,17.06
2023-05-12T08:32:41.368Z,17.02
2023-05-12T08:33:41.310Z,17.04
2023-05-12T08:34:41.289Z,17.06
2023-05-12T08:35:41.278Z,17.23
2023-05-12T08:36:41.215Z,17.22
2023-05-12T08:37:41.339Z,17.20
2023-05-12T08:38:41.150Z,17.23
2023-05-12T08:39:41.129Z,17.27
2023-05-12T08:40:41.085Z,17.27
2023-05-12T08:41:41.072Z,17.38
2023-05-12T08:42:41.021Z,17.38
2023-05-12T08:43:40.997Z,17.51
2023-05-12T08:44:40.957Z,17.48
2023-05-12T08:45:40.950Z,17.49
2023-05-12T08:46:41.013Z,17.46
2023-05-12T08:47:40.918Z,17.49
2023-05-12T08:48:40.828Z,17.63
2023-05-12T08:49:40.796Z,17.72
2023-05-12T08:50:40.767Z,17.80
2023-05-12T08:51:40.746Z,17.70
2023-05-12T08:52:40.699Z,17.68
2023-05-12T08:53:40.737Z,17.67
2023-05-12T08:54:52.241Z,17.72
2023-05-12T08:55:40.601Z,17.79
2023-05-12T08:57:40.535Z,17.79
2023-05-12T08:58:41.993Z,17.74
2023-05-12T08:59:40.476Z,17.74
2023-05-12T09:00:40.563Z,17.82
2023-05-12T09:01:40.488Z,17.86
2023-05-12T09:02:52.102Z,17.98
2023-05-12T09:03:40.375Z,18.00
2023-05-12T09:04:40.352Z,18.10
2023-05-12T09:05:40.299Z,18.01
2023-05-12T09:06:40.287Z,18.11
2023-05-12T09:07:40.222Z,18.10
2023-05-12T09:08:40.192Z,18.15
2023-05-12T09:09:40.168Z,18.08
2023-05-12T09:10:40.134Z,17.95
2023-05-12T09:11:40.097Z,18.10
2023-05-12T09:12:40.058Z,18.10
2023-05-12T09:13:40.033Z,18.10
2023-05-12T09:14:40.006Z,18.13
2023-05-12T09:15:39.981Z,18.15
2023-05-12T09:16:39.949Z,18.15
2023-05-12T09:17:39.944Z,18.15
2023-05-12T09:18:39.918Z,18.29
2023-05-12T09:19:39.842Z,18.41
2023-05-12T09:20:39.831Z,18.47
2023-05-12T09:21:39.780Z,18.52
2023-05-12T09:22:39.748Z,18.49
2023-05-12T09:23:39.726Z,18.53
2023-05-12T09:24:39.709Z,18.53
2023-05-12T09:25:39.688Z,18.60
2023-05-12T09:26:39.640Z,18.56
2023-05-12T09:27:39.590Z,18.53
2023-05-12T09:28:39.568Z,18.55
2023-05-12T09:29:45.350Z,18.47
2023-05-12T09:30:39.500Z,18.53
2023-05-12T09:31:39.570Z,18.55
2023-05-12T09:32:39.475Z,18.62
2023-05-12T09:33:39.407Z,18.71
2023-05-12T09:34:39.391Z,18.71
2023-05-12T09:35:39.346Z,18.88
2023-05-12T09:36:40.076Z,18.83
2023-05-12T09:37:39.280Z,18.70
2023-05-12T09:38:39.248Z,18.86
2023-05-12T09:39:39.231Z,18.96
2023-05-12T09:40:39.195Z,18.93
2023-05-12T09:41:39.172Z,18.92
2023-05-12T09:42:39.133Z,19.02
2023-05-12T09:43:39.094Z,18.96
2023-05-12T09:44:39.063Z,18.95
2023-05-12T09:45:39.271Z,18.92
2023-05-12T09:46:38.999Z,18.95
2023-05-12T09:47:39.011Z,19.14
2023-05-12T09:48:38.952Z,19.22
2023-05-12T09:49:38.925Z,19.22
2023-05-12T09:50:47.177Z,19.12
2023-05-12T09:51:38.846Z,19.15
2023-05-12T09:52:38.830Z,19.15
2023-05-12T09:53:38.786Z,19.21
2023-05-12T09:54:38.768Z,19.27
2023-05-12T09:55:38.735Z,19.24
2023-05-12T09:56:38.693Z,19.21
2023-05-12T09:57:38.697Z,19.18
2023-05-12T09:58:38.643Z,19.27
2023-05-12T09:59:39.339Z,19.14
2023-05-12T10:00:58.548Z,19.24
2023-05-12T10:01:38.569Z,19.21
2023-05-12T10:02:38.543Z,19.19
2023-05-12T10:03:38.475Z,19.33
2023-05-12T10:04:38.500Z,19.27
2023-05-12T10:05:38.408Z,19.29
2023-05-12T10:06:38.386Z,19.37
2023-05-12T10:07:38.357Z,19.27
2023-05-12T10:08:38.328Z,19.41
2023-05-12T10:09:38.289Z,19.40
2023-05-12T10:10:38.257Z,19.55
2023-05-12T10:11:38.228Z,19.52
2023-05-12T10:12:38.194Z,19.62
2023-05-12T10:13:38.169Z,19.62
2023-05-12T10:14:38.156Z,19.73
2023-05-12T10:15:38.112Z,19.76
2023-05-12T10:16:38.103Z,19.88
2023-05-12T10:17:38.064Z,19.89
2023-05-12T10:18:38.045Z,19.88
2023-05-12T10:19:37.983Z,19.92
2023-05-12T10:20:37.951Z,20.00
2023-05-12T10:21:37.917Z,20.02
2023-05-12T10:22:37.898Z,20.10
2023-05-12T10:23:38.260Z,19.99
2023-05-12T10:24:37.840Z,19.92
2023-05-12T10:25:37.802Z,19.95
2023-05-12T10:26:38.832Z,19.92
2023-05-12T10:27:37.778Z,20.00
2023-05-12T10:28:37.708Z,20.00
2023-05-12T10:29:37.766Z,20.13
2023-05-12T10:30:37.649Z,20.24
2023-05-12T10:31:37.640Z,20.31
2023-05-12T10:32:37.613Z,20.31
2023-05-12T10:33:37.556Z,20.18
2023-05-12T10:34:37.559Z,20.18
2023-05-12T10:35:37.494Z,20.25
2023-05-12T10:36:37.470Z,20.29
2023-05-12T10:37:37.439Z,20.31
2023-05-12T10:38:37.447Z,20.41
2023-05-12T10:39:37.386Z,20.34
2023-05-12T10:40:37.364Z,20.34
2023-05-12T10:41:37.316Z,20.29
2023-05-12T10:42:37.298Z,20.40
2023-05-12T10:43:37.264Z,20.55
2023-05-12T10:44:37.235Z,20.55
2023-05-12T10:45:37.220Z,20.41
2023-05-12T10:46:37.211Z,20.41
2023-05-12T10:47:37.195Z,20.51
2023-05-12T10:48:37.111Z,20.50
2023-05-12T10:49:37.081Z,20.59
2023-05-12T10:50:37.062Z,20.62
2023-05-12T10:51:37.019Z,20.60
2023-05-12T10:52:36.993Z,20.51
2023-05-12T10:53:48.235Z,20.62
2023-05-12T10:54:36.930Z,20.72
2023-05-12T10:55:37.049Z,20.82
2023-05-12T10:56:37.072Z,21.02
2023-05-12T10:57:37.152Z,21.07
2023-05-12T10:58:37.551Z,21.06
2023-05-12T10:59:37.120Z,21.29
2023-05-12T11:00:37.190Z,21.25
2023-05-12T11:01:37.630Z,21.45
2023-05-12T11:02:38.581Z,21.54
2023-05-12T11:03:37.394Z,21.72
2023-05-12T11:04:37.546Z,21.95
2023-05-12T11:05:37.722Z,21.99
2023-05-12T11:06:36.646Z,22.20
2023-05-12T11:07:37.507Z,22.33
2023-05-12T11:08:37.712Z,22.51
2023-05-12T11:09:40.471Z,22.55
2023-05-12T11:10:36.512Z,22.70
2023-05-12T11:11:36.542Z,22.53
2023-05-12T11:12:36.740Z,22.41
2023-05-12T11:13:36.388Z,22.22
2023-05-12T11:14:36.357Z,22.18
2023-05-12T11:15:36.321Z,22.22
2023-05-12T11:16:36.320Z,22.06
2023-05-12T11:17:36.299Z,21.95
2023-05-12T11:18:36.261Z,22.07
2023-05-12T11:19:36.215Z,22.20
2023-05-12T11:20:36.184Z,22.17
2023-05-12T11:21:36.153Z,22.20
2023-05-12T11:22:36.150Z,22.18
2023-05-12T11:23:36.103Z,22.26
2023-05-12T11:24:36.069Z,22.23
2023-05-12T11:25:36.112Z,22.43
2023-05-12T11:26:36.031Z,22.44
2023-05-12T11:27:35.987Z,22.44
2023-05-12T11:28:35.956Z,22.51
2023-05-12T11:29:35.929Z,22.41
2023-05-12T11:30:35.904Z,22.41
2023-05-12T11:31:35.942Z,22.51
2023-05-12T11:32:35.860Z,22.44
2023-05-12T11:33:35.817Z,22.48
2023-05-12T11:34:35.799Z,22.48
2023-05-12T11:35:35.765Z,22.54
2023-05-12T11:36:35.738Z,22.55
2023-05-12T11:37:35.707Z,22.55
2023-05-12T11:38:35.684Z,22.43
2023-05-12T11:39:35.653Z,22.25
2023-05-12T11:40:35.627Z,22.35
2023-05-12T11:41:35.594Z,22.43
2023-05-12T11:42:35.565Z,22.45
2023-05-12T11:43:35.530Z,22.55
2023-05-12T11:44:35.509Z,22.53
2023-05-12T11:45:35.548Z,22.50
2023-05-12T11:46:35.449Z,22.45
2023-05-12T11:47:35.470Z,22.41
2023-05-12T11:48:35.392Z,22.53
2023-05-12T11:49:35.474Z,22.41
2023-05-12T11:50:35.338Z,22.38
2023-05-12T11:51:35.311Z,22.41
2023-05-12T11:52:35.277Z,22.45
2023-05-12T11:53:35.251Z,22.47
2023-05-12T11:54:35.235Z,22.54
2023-05-12T11:55:35.214Z,22.43
2023-05-12T11:56:35.174Z,22.45
2023-05-12T11:57:35.135Z,22.41
2023-05-12T11:58:35.757Z,22.38
2023-05-12T11:59:35.109Z,22.38
2023-05-12T12:00:35.073Z,22.35
2023-05-12T12:01:35.023Z,22.43
2023-05-12T12:02:35.064Z,22.45
2023-05-12T12:03:35.056Z,22.48
2023-05-12T12:04:35.120Z,22.54
2023-05-12T12:05:34.951Z,22.66
2023-05-12T12:06:34.902Z,22.75
2023-05-12T12:07:34.881Z,22.75
2023-05-12T12:08:34.842Z,22.81
2023-05-12T12:09:34.802Z,22.73
2023-05-12T12:10:34.766Z,22.69
2023-05-12T12:11:34.750Z,22.83
2023-05-12T12:12:34.724Z,22.87
2023-05-12T12:13:34.687Z,22.91
2023-05-12T12:14:34.656Z,23.02
2023-05-12T12:15:34.633Z,22.99
2023-05-12T12:16:34.650Z,22.90
2023-05-12T12:17:34.682Z,22.88
2023-05-12T12:18:34.595Z,22.91
2023-05-12T12:19:34.530Z,22.91
2023-05-12T12:20:34.493Z,23.05
2023-05-12T12:21:34.511Z,23.02
2023-05-12T12:22:34.793Z,23.12
2023-05-12T12:23:44.105Z,23.36
2023-05-12T12:24:34.390Z,23.55
2023-05-12T12:25:34.345Z,23.63
2023-05-12T12:26:34.325Z,23.68
2023-05-12T12:27:34.295Z,23.69
2023-05-12T12:28:34.283Z,23.69
2023-05-12T12:29:34.237Z,23.59
2023-05-12T12:30:34.216Z,23.68
2023-05-12T12:31:34.207Z,23.44
2023-05-12T12:32:34.191Z,23.41
2023-05-12T12:33:34.124Z,23.48
2023-05-12T12:34:34.101Z,23.63
2023-05-12T12:35:34.073Z,23.65
2023-05-12T12:36:34.041Z,23.74
2023-05-12T12:37:34.104Z,23.80
2023-05-12T12:38:34.014Z,23.78
2023-05-12T12:39:33.962Z,23.74
2023-05-12T12:40:33.934Z,23.74
2023-05-12T12:41:33.902Z,23.84
2023-05-12T12:42:33.867Z,23.71
2023-05-12T12:43:33.847Z,23.76
2023-05-12T12:44:33.821Z,23.84
2023-05-12T12:45:33.799Z,23.83
2023-05-12T12:46:33.782Z,23.87
2023-05-12T12:47:33.767Z,23.84
2023-05-12T12:48:33.713Z,23.84
2023-05-12T12:49:33.685Z,23.93
2023-05-12T12:50:33.656Z,24.01
2023-05-12T12:51:44.479Z,24.13
2023-05-12T12:52:33.599Z,23.99
2023-05-12T12:53:33.575Z,24.05
2023-05-12T12:54:33.549Z,24.14